Cody Paul — WDC8106 — position and weather

sailwx.info

Track history (hours):
 
Tides and Currents Weather Stations Pressure Air Temp Water Temp Dewpoint Dewpoint Depression Visibility Wind Speed Wind Dir Waves Ship Positions

Cody Paul

Owner: Triple S Marine, LLC, Morgan City, LA. More information available from US FCC via Universal Licensing System and Coast Guard Vessel Documentation Center.

Last reported at 2018-Apr-25 13:26 UTC. Time now 2018-Apr-26 03:22 UTC.
Position N 29°33' W 090°32'.

Length 16 m; draft 3 m.

Type: Tug. MMSI: 367081770.

Date/timePositionNaut miles runAvg speedWind from/ knotsBaromVisibWave heightAir tempDewpointWater temp
2018-Apr-25 13:26N 29°33' W 090°32'0 0.0
2018-Apr-25 12:59N 29°33' W 090°32'0 0.1
2018-Apr-25 12:26N 29°33' W 090°32'3 0.1
2018-Apr-23 14:35N 29°34' W 090°29'1 8.0
2018-Apr-23 14:29N 29°34' W 090°30'2 2.9
2018-Apr-23 13:52N 29°33' W 090°32'0 0.4
2018-Apr-23 13:29N 29°33' W 090°32'0 0.3
2018-Apr-23 13:00N 29°33' W 090°32'0 0.7
2018-Apr-23 12:26N 29°34' W 090°32'7 0.1
2018-Apr-21 08:28N 29°33' W 090°24'4 6.2
2018-Apr-21 07:53N 29°33' W 090°28'2 6.3
2018-Apr-21 07:30N 29°34' W 090°31'1 1.8
2018-Apr-21 06:59N 29°33' W 090°32'0 0.0
2018-Apr-21 06:26N 29°33' W 090°32'2 0.1
2018-Apr-19 14:48N 29°34' W 090°29'2 6.6
2018-Apr-19 14:29N 29°33' W 090°32'0 0.4
2018-Apr-19 13:54N 29°33' W 090°32'3 0.1
2018-Apr-18 12:56N 29°34' W 090°29'3 6.4
2018-Apr-18 12:30N 29°33' W 090°32'0 0.1
2018-Apr-18 10:39N 29°33' W 090°32'0 0.1
2018-Apr-18 10:30N 29°33' W 090°32'2 0.1
2018-Apr-17 07:22N 29°34' W 090°29'2 5.2
2018-Apr-17 06:57N 29°33' W 090°32'1 0.0
2018-Apr-15 17:02N 29°34' W 090°31'1 8.2
2018-Apr-15 16:57N 29°34' W 090°31'  
Track history (hours):
 
Tides and Currents Weather Stations Pressure Air Temp Water Temp Dewpoint Dewpoint Depression Visibility Wind Speed Wind Dir Waves Ship Positions

Cody Paul

Owner: Triple S Marine, LLC, Morgan City, LA. More information available from US FCC via Universal Licensing System and Coast Guard Vessel Documentation Center.

Last reported at 2018-Apr-25 13:26 UTC. Time now 2018-Apr-26 03:22 UTC.
Position N 29°33' W 090°32'.

Length 16 m; draft 3 m.

Type: Tug. MMSI: 367081770.

Date/timePositionNaut miles runAvg speedWind from/ knotsBaromVisibWave heightAir tempDewpointWater temp
2018-Apr-25 13:26N 29°33' W 090°32'0 0.0
2018-Apr-25 12:59N 29°33' W 090°32'0 0.1
2018-Apr-25 12:26N 29°33' W 090°32'3 0.1
2018-Apr-23 14:35N 29°34' W 090°29'1 8.0
2018-Apr-23 14:29N 29°34' W 090°30'2 2.9
2018-Apr-23 13:52N 29°33' W 090°32'0 0.4
2018-Apr-23 13:29N 29°33' W 090°32'0 0.3
2018-Apr-23 13:00N 29°33' W 090°32'0 0.7
2018-Apr-23 12:26N 29°34' W 090°32'7 0.1
2018-Apr-21 08:28N 29°33' W 090°24'4 6.2
2018-Apr-21 07:53N 29°33' W 090°28'2 6.3
2018-Apr-21 07:30N 29°34' W 090°31'1 1.8
2018-Apr-21 06:59N 29°33' W 090°32'0 0.0
2018-Apr-21 06:26N 29°33' W 090°32'2 0.1
2018-Apr-19 14:48N 29°34' W 090°29'2 6.6
2018-Apr-19 14:29N 29°33' W 090°32'0 0.4
2018-Apr-19 13:54N 29°33' W 090°32'3 0.1
2018-Apr-18 12:56N 29°34' W 090°29'3 6.4
2018-Apr-18 12:30N 29°33' W 090°32'0 0.1
2018-Apr-18 10:39N 29°33' W 090°32'0 0.1
2018-Apr-18 10:30N 29°33' W 090°32'2 0.1
2018-Apr-17 07:22N 29°34' W 090°29'2 5.2
2018-Apr-17 06:57N 29°33' W 090°32'1 0.0
2018-Apr-15 17:02N 29°34' W 090°31'1 8.2
2018-Apr-15 16:57N 29°34' W 090°31'  

Dump ship's entire track history